Time;durP1;ratioP1;P1;durP2;ratioP2;P2;SDS_P1;SDS_P2;PMS_P1;PMS_P2;Temp;Humidity;BMP_temperature;BMP_pressure;BME280_temperature;BME280_humidity;BME280_pressure;Samples;Min_cycle;Max_cycle;Signal;HPM_P1;HPM_P2
2023/02/28 00:01:26;;;;;;;6.87;3.40;;;4.20;99.90;;;;;;4850573;29;20495;-58
2023/02/28 00:03:56;;;;;;;4.40;2.93;;;4.30;99.90;;;;;;4841745;29;20246;-59
2023/02/28 00:06:25;;;;;;;6.07;3.50;;;4.70;99.90;;;;;;4842000;29;20592;-59
2023/02/28 00:08:53;;;;;;;6.63;3.27;;;4.80;99.90;;;;;;4840256;29;20514;-59
2023/02/28 00:11:21;;;;;;;9.13;3.73;;;4.70;99.90;;;;;;4824083;29;20477;-58
2023/02/28 00:13:49;;;;;;;5.07;3.43;;;4.70;99.90;;;;;;4823729;29;20988;-59
2023/02/28 00:16:20;;;;;;;6.17;3.17;;;4.90;99.90;;;;;;4823836;29;20242;-59
2023/02/28 00:18:48;;;;;;;6.43;3.50;;;5.00;99.90;;;;;;4825053;29;20478;-59
2023/02/28 00:21:19;;;;;;;6.27;3.27;;;5.10;99.90;;;;;;4850898;29;20818;-59
2023/02/28 00:23:47;;;;;;;4.80;3.03;;;4.80;99.90;;;;;;4860496;29;20479;-59
2023/02/28 00:26:16;;;;;;;5.70;2.97;;;4.60;99.90;;;;;;4857970;29;20234;-59
2023/02/28 00:28:46;;;;;;;6.07;3.00;;;4.40;99.90;;;;;;4864644;29;20241;-59
2023/02/28 00:31:14;;;;;;;5.87;3.33;;;4.40;99.90;;;;;;4866536;29;20501;-59
2023/02/28 00:33:42;;;;;;;7.00;3.30;;;4.30;99.90;;;;;;4847304;29;20530;-59
2023/02/28 00:36:12;;;;;;;5.70;3.27;;;4.40;99.90;;;;;;4848742;29;20249;-59
2023/02/28 00:38:42;;;;;;;5.37;2.93;;;4.50;99.90;;;;;;4857288;29;20506;-59
2023/02/28 00:41:10;;;;;;;5.57;3.30;;;4.30;99.90;;;;;;4846899;29;20264;-59
2023/02/28 00:43:40;;;;;;;5.10;3.23;;;4.30;99.90;;;;;;4848895;29;20234;-59
2023/02/28 00:46:08;;;;;;;6.40;3.60;;;4.30;99.90;;;;;;4846488;29;20475;-59
2023/02/28 00:48:37;;;;;;;5.07;2.97;;;4.70;99.90;;;;;;4844717;29;20232;-59
2023/02/28 00:51:05;;;;;;;6.30;3.07;;;4.80;99.90;;;;;;4852588;29;20238;-59
2023/02/28 00:53:34;;;;;;;7.03;3.10;;;4.70;99.90;;;;;;4859597;29;20523;-59
2023/02/28 00:56:04;;;;;;;6.13;3.10;;;4.50;99.90;;;;;;4855787;29;20478;-59
2023/02/28 00:58:32;;;;;;;3.60;2.53;;;4.40;99.90;;;;;;4863262;29;20826;-59
2023/02/28 01:01:00;;;;;;;6.37;3.03;;;4.30;99.90;;;;;;4849526;29;20513;-59
2023/02/28 01:03:29;;;;;;;4.10;3.10;;;4.40;99.90;;;;;;4841499;29;20490;-59
2023/02/28 01:05:57;;;;;;;5.53;2.60;;;4.60;99.90;;;;;;4844816;29;21059;-59
2023/02/28 01:08:26;;;;;;;5.57;2.90;;;4.70;99.90;;;;;;4839147;29;20522;-59
2023/02/28 01:10:54;;;;;;;5.73;2.97;;;4.90;99.90;;;;;;4826340;29;20710;-59
2023/02/28 01:13:25;;;;;;;4.13;2.53;;;5.10;99.90;;;;;;4826226;29;20489;-59
2023/02/28 01:15:55;;;;;;;4.93;2.90;;;4.90;99.90;;;;;;4826260;29;20576;-59
2023/02/28 01:18:25;;;;;;;3.70;2.87;;;4.60;99.90;;;;;;4824942;29;20535;-59
2023/02/28 01:20:53;;;;;;;8.20;2.63;;;4.90;99.90;;;;;;4846590;29;20534;-59
2023/02/28 01:23:23;;;;;;;8.43;2.80;;;5.10;99.90;;;;;;4856354;29;20479;-59
2023/02/28 01:25:51;;;;;;;3.47;2.43;;;5.00;99.90;;;;;;4855833;29;20674;-59
2023/02/28 01:28:19;;;;;;;4.60;2.60;;;5.10;99.90;;;;;;4861782;29;20239;-59
2023/02/28 01:30:52;;;;;;;6.20;3.00;;;5.20;99.90;;;;;;4861611;29;20313;-58
2023/02/28 01:33:20;;;;;;;4.40;2.70;;;5.10;99.90;;;;;;4847696;29;20503;-59
2023/02/28 01:35:49;;;;;;;5.80;2.80;;;5.30;99.90;;;;;;4842992;29;20231;-59
2023/02/28 01:38:17;;;;;;;4.07;2.87;;;5.20;99.90;;;;;;4844151;29;20752;-59
2023/02/28 01:40:51;;;;;;;5.17;2.73;;;5.30;99.90;;;;;;4842989;29;20734;-59
2023/02/28 01:43:23;;;;;;;6.30;2.60;;;5.30;99.90;;;;;;4844436;29;20503;-59
2023/02/28 01:45:55;;;;;;;4.90;2.73;;;5.20;99.90;;;;;;4844091;29;20471;-59
2023/02/28 01:48:27;;;;;;;3.13;2.40;;;5.00;99.90;;;;;;4844169;29;20237;-59
2023/02/28 01:50:59;;;;;;;6.13;2.90;;;4.90;99.90;;;;;;4848315;29;20515;-59
2023/02/28 01:53:33;;;;;;;4.33;2.20;;;5.20;99.90;;;;;;4858814;29;20238;-59
2023/02/28 01:56:03;;;;;;;4.23;2.50;;;5.00;99.90;;;;;;4854639;29;20230;-59
2023/02/28 01:58:32;;;;;;;4.57;2.70;;;4.70;99.90;;;;;;4858675;29;20493;-59
2023/02/28 02:01:02;;;;;;;4.40;2.50;;;4.50;99.90;;;;;;4842230;29;20261;-58
2023/02/28 02:03:32;;;;;;;3.77;2.70;;;4.70;99.90;;;;;;4840448;29;20479;-59
2023/02/28 02:06:00;;;;;;;5.30;2.70;;;4.70;99.90;;;;;;4843820;29;20235;-59
2023/02/28 02:08:30;;;;;;;4.57;2.83;;;4.60;99.90;;;;;;4857587;29;20473;-58
2023/02/28 02:11:01;;;;;;;4.90;2.73;;;4.80;99.90;;;;;;4843671;29;20226;-59
2023/02/28 02:13:55;;;;;;;5.63;2.60;;;4.70;99.90;;;;;;4842204;29;20505;-59
2023/02/28 02:16:39;;;;;;;6.60;2.43;;;5.00;99.90;;;;;;4842362;29;20486;-59
2023/02/28 02:19:23;;;;;;;7.13;2.50;;;4.90;99.90;;;;;;4843798;29;20590;-59
2023/02/28 02:22:27;;;;;;;2.40;2.00;;;4.90;99.90;;;;;;4851478;29;20976;-58
2023/02/28 02:25:13;;;;;;;3.90;2.30;;;4.60;99.90;;;;;;4803855;29;20492;-59
2023/02/28 02:28:00;;;;;;;4.33;2.30;;;4.40;99.90;;;;;;4840653;29;21007;-58
2023/02/28 02:30:47;;;;;;;4.63;2.60;;;4.80;99.90;;;;;;4856836;29;20831;-59
2023/02/28 02:33:42;;;;;;;4.87;2.40;;;4.70;99.90;;;;;;4843283;29;20246;-59
2023/02/28 02:36:19;;;;;;;2.97;1.97;;;4.90;99.90;;;;;;4825320;29;20265;-58
2023/02/28 02:38:50;;;;;;;2.80;2.20;;;4.90;99.90;;;;;;4823547;29;20508;-59
2023/02/28 02:41:25;;;;;;;4.43;2.03;;;4.90;99.90;;;;;;4825940;29;20482;-59
2023/02/28 02:43:57;;;;;;;3.57;2.50;;;4.70;99.90;;;;;;4824911;29;20918;-59
2023/02/28 02:46:31;;;;;;;3.53;2.50;;;4.90;99.90;;;;;;4832890;29;20230;-59
2023/02/28 02:49:02;;;;;;;3.93;2.23;;;4.90;99.90;;;;;;4843289;29;20486;-59
2023/02/28 02:51:34;;;;;;;3.17;2.13;;;4.70;99.90;;;;;;4849012;29;20837;-59
2023/02/28 02:54:07;;;;;;;3.83;2.00;;;4.40;99.90;;;;;;4849138;29;20286;-59
2023/02/28 02:56:39;;;;;;;5.07;2.60;;;4.20;99.90;;;;;;4857739;29;20485;-59
2023/02/28 02:59:11;;;;;;;5.50;2.20;;;4.10;99.90;;;;;;4845607;29;20588;-59
2023/02/28 03:01:42;;;;;;;4.33;2.00;;;4.20;99.90;;;;;;4826209;29;20515;-59
2023/02/28 03:04:13;;;;;;;4.47;2.50;;;4.00;99.90;;;;;;4843027;29;20714;-59
2023/02/28 03:06:43;;;;;;;5.10;2.40;;;3.90;99.90;;;;;;4842541;29;20475;-59
2023/02/28 03:09:11;;;;;;;3.00;2.00;;;3.80;99.90;;;;;;4841112;29;20558;-59
2023/02/28 03:11:41;;;;;;;7.13;2.27;;;3.80;99.90;;;;;;4841238;29;20890;-59
2023/02/28 03:14:26;;;;;;;5.60;2.20;;;3.80;99.90;;;;;;4842577;29;20826;-59
2023/02/28 03:17:09;;;;;;;5.07;2.30;;;3.70;99.90;;;;;;4842589;29;20462;-58
2023/02/28 03:19:50;;;;;;;2.83;2.10;;;3.70;99.90;;;;;;4842717;29;20468;-59
2023/02/28 03:22:40;;;;;;;3.47;2.30;;;3.90;99.90;;;;;;4846516;29;20474;-59
2023/02/28 03:25:14;;;;;;;3.60;2.20;;;3.80;99.90;;;;;;4843119;29;20969;-59
2023/02/28 03:27:50;;;;;;;3.00;1.90;;;3.70;99.90;;;;;;4841932;29;20505;-58
2023/02/28 03:30:26;;;;;;;4.27;2.00;;;3.90;99.90;;;;;;4842048;29;20480;-58
2023/02/28 03:32:58;;;;;;;6.70;2.37;;;4.20;99.90;;;;;;4842127;29;20481;-59
2023/02/28 03:35:30;;;;;;;4.93;2.10;;;4.30;99.90;;;;;;4842437;29;20829;-59
2023/02/28 03:38:07;;;;;;;5.40;2.60;;;4.60;99.90;;;;;;4842416;29;20507;-59
2023/02/28 03:40:37;;;;;;;5.20;2.80;;;4.40;99.90;;;;;;4842039;29;20477;-58
2023/02/28 03:43:12;;;;;;;5.07;3.17;;;4.30;99.90;;;;;;4842225;29;20463;-59
2023/02/28 03:45:42;;;;;;;6.10;3.10;;;4.40;99.90;;;;;;4842323;29;20472;-59
2023/02/28 03:48:16;;;;;;;3.33;2.40;;;4.30;99.90;;;;;;4842417;29;20711;-59
2023/02/28 03:50:48;;;;;;;4.27;2.67;;;4.30;99.90;;;;;;4851363;29;20479;-59
2023/02/28 03:53:22;;;;;;;4.67;2.60;;;4.30;99.90;;;;;;4848247;29;20476;-58
2023/02/28 03:55:55;;;;;;;6.87;2.90;;;4.30;99.90;;;;;;4852857;29;20824;-58
2023/02/28 03:58:30;;;;;;;4.77;2.27;;;4.00;99.90;;;;;;4847276;29;20495;-58
2023/02/28 04:01:07;;;;;;;5.60;2.67;;;4.10;99.90;;;;;;4841540;29;20494;-58
2023/02/28 04:03:37;;;;;;;4.27;2.77;;;4.20;99.90;;;;;;4841952;29;20253;-59
2023/02/28 04:06:07;;;;;;;4.27;2.30;;;3.90;99.90;;;;;;4837528;29;20484;-59
2023/02/28 04:08:37;;;;;;;4.17;2.63;;;3.80;99.90;;;;;;4841841;29;20251;-59
2023/02/28 04:11:09;;;;;;;4.10;2.47;;;3.70;99.90;;;;;;4841992;29;20474;-59
2023/02/28 04:13:37;;;;;;;6.53;2.50;;;3.60;99.90;;;;;;4841676;29;20494;-59
2023/02/28 04:16:11;;;;;;;3.53;2.20;;;3.50;99.90;;;;;;4842155;29;20471;-58
2023/02/28 04:18:51;;;;;;;4.77;2.57;;;3.50;99.90;;;;;;4842009;29;21004;-58
2023/02/28 04:21:22;;;;;;;4.87;2.30;;;3.40;99.90;;;;;;4849255;29;20482;-59
2023/02/28 04:23:51;;;;;;;4.07;2.03;;;3.50;99.90;;;;;;4851488;29;20471;-59
2023/02/28 04:26:19;;;;;;;3.53;2.50;;;3.70;99.90;;;;;;4854786;29;20482;-59
2023/02/28 04:28:47;;;;;;;4.13;2.30;;;3.60;99.90;;;;;;4828742;29;20484;-59
2023/02/28 04:31:15;;;;;;;5.00;2.50;;;3.90;99.90;;;;;;4823359;29;20495;-59
2023/02/28 04:33:43;;;;;;;3.77;2.30;;;3.90;99.90;;;;;;4841068;29;20745;-59
2023/02/28 04:36:12;;;;;;;4.73;2.17;;;3.70;99.90;;;;;;4842033;29;20479;-59
2023/02/28 04:38:40;;;;;;;4.50;2.50;;;3.60;99.90;;;;;;4841796;29;20992;-59
2023/02/28 04:41:09;;;;;;;5.00;2.57;;;3.40;99.90;;;;;;4841699;29;20464;-59
2023/02/28 04:43:37;;;;;;;4.30;2.17;;;3.30;99.90;;;;;;4843944;29;20486;-58
2023/02/28 04:46:07;;;;;;;6.57;2.73;;;3.40;99.90;;;;;;4853760;29;20835;-58
2023/02/28 04:48:37;;;;;;;5.00;2.33;;;3.40;99.90;;;;;;4845740;29;20496;-59
2023/02/28 04:51:07;;;;;;;7.33;2.70;;;3.30;99.90;;;;;;4850377;29;20479;-58
2023/02/28 04:53:36;;;;;;;5.37;2.67;;;3.30;99.90;;;;;;4844751;29;20829;-58
2023/02/28 04:56:06;;;;;;;7.60;2.70;;;3.20;99.90;;;;;;4841419;29;20483;-59
2023/02/28 04:58:35;;;;;;;3.83;2.60;;;3.10;99.90;;;;;;4825526;29;20507;-58
2023/02/28 05:01:12;;;;;;;5.13;2.53;;;3.10;99.90;;;;;;4825971;29;20475;-59
2023/02/28 05:03:41;;;;;;;5.43;2.97;;;3.10;99.90;;;;;;4840152;29;20563;-59
2023/02/28 05:06:09;;;;;;;5.67;2.90;;;3.10;99.90;;;;;;4851364;29;20479;-58
2023/02/28 05:08:37;;;;;;;3.90;2.77;;;3.00;99.90;;;;;;4844914;29;20479;-58
2023/02/28 05:11:15;;;;;;;4.60;2.90;;;3.00;99.90;;;;;;4844815;29;20475;-58
2023/02/28 05:13:45;;;;;;;3.77;2.30;;;3.10;99.90;;;;;;4844229;29;20862;-58
2023/02/28 05:16:13;;;;;;;6.73;3.30;;;3.10;99.90;;;;;;4844612;29;20476;-59
2023/02/28 05:18:41;;;;;;;6.23;2.80;;;3.30;99.90;;;;;;4844054;29;20499;-58
2023/02/28 05:21:27;;;;;;;6.70;3.23;;;3.20;99.90;;;;;;4853897;29;20470;-59
2023/02/28 05:23:56;;;;;;;6.47;4.03;;;3.30;99.90;;;;;;4853947;29;20483;-58
2023/02/28 05:26:25;;;;;;;5.03;3.70;;;3.20;99.90;;;;;;4857907;29;20470;-59
2023/02/28 05:28:55;;;;;;;5.60;3.20;;;3.10;99.90;;;;;;4844398;29;20966;-58
2023/02/28 05:31:23;;;;;;;5.13;3.20;;;3.20;99.90;;;;;;4844197;29;20836;-58
2023/02/28 05:33:52;;;;;;;7.40;4.03;;;3.40;99.90;;;;;;4844146;29;20491;-58
2023/02/28 05:36:20;;;;;;;5.83;3.37;;;3.20;99.90;;;;;;4844567;29;20497;-58
2023/02/28 05:38:49;;;;;;;5.10;3.03;;;3.00;99.90;;;;;;4844059;29;20491;-58
2023/02/28 05:41:19;;;;;;;5.53;3.17;;;2.90;99.90;;;;;;4844218;29;20480;-58
2023/02/28 05:43:47;;;;;;;5.53;2.90;;;2.80;99.90;;;;;;4844007;29;20487;-58
2023/02/28 05:46:18;;;;;;;5.03;3.20;;;2.70;99.90;;;;;;4836695;29;20858;-58
2023/02/28 05:48:48;;;;;;;5.77;2.80;;;2.70;99.90;;;;;;4850373;29;20491;-58
2023/02/28 05:51:17;;;;;;;5.00;3.07;;;2.60;99.90;;;;;;4845375;29;21030;-58
2023/02/28 05:53:45;;;;;;;5.30;3.00;;;2.50;99.90;;;;;;4842317;29;20980;-58
2023/02/28 05:56:13;;;;;;;6.13;3.60;;;2.50;99.90;;;;;;4847092;29;21011;-58
2023/02/28 05:58:41;;;;;;;5.63;3.40;;;2.60;99.90;;;;;;4827315;29;20480;-59
2023/02/28 06:01:31;;;;;;;5.47;3.17;;;2.90;99.90;;;;;;4833564;29;20472;-58
2023/02/28 06:04:00;;;;;;;6.00;3.10;;;2.60;99.90;;;;;;4843995;29;20569;-58
2023/02/28 06:06:30;;;;;;;5.17;3.30;;;2.50;99.90;;;;;;4839636;29;20561;-59
2023/02/28 06:08:58;;;;;;;4.53;3.50;;;2.80;99.90;;;;;;4825766;29;20507;-58
2023/02/28 06:11:27;;;;;;;8.40;4.40;;;3.20;99.90;;;;;;4825406;29;20570;-59
2023/02/28 06:13:56;;;;;;;6.27;4.30;;;3.20;99.90;;;;;;4825860;29;20490;-58
2023/02/28 06:16:26;;;;;;;12.23;4.93;;;3.10;99.90;;;;;;4825809;29;20478;-57
2023/02/28 06:18:56;;;;;;;12.63;5.27;;;3.30;99.90;;;;;;4829696;29;20478;-58
2023/02/28 06:21:24;;;;;;;7.73;4.60;;;3.50;99.90;;;;;;4864054;29;20486;-58
2023/02/28 06:23:52;;;;;;;8.07;5.03;;;3.40;99.90;;;;;;4853208;29;20480;-59
2023/02/28 06:26:21;;;;;;;8.23;5.03;;;3.40;99.90;;;;;;4844714;29;20472;-58
2023/02/28 06:28:49;;;;;;;7.73;5.30;;;3.50;99.90;;;;;;4837763;29;20982;-58
2023/02/28 06:31:19;;;;;;;10.57;5.80;;;3.30;99.90;;;;;;4835347;29;22231;-58
2023/02/28 06:33:49;;;;;;;7.90;4.97;;;3.00;99.90;;;;;;4840654;29;20536;-58
2023/02/28 06:36:18;;;;;;;6.53;4.57;;;2.70;99.90;;;;;;4847812;29;20481;-58
2023/02/28 06:38:51;;;;;;;9.03;5.00;;;2.60;99.90;;;;;;4846965;29;20521;-58
2023/02/28 06:41:19;;;;;;;7.70;4.87;;;2.60;99.90;;;;;;4843489;29;20482;-59
2023/02/28 06:43:47;;;;;;;9.27;5.13;;;2.60;99.90;;;;;;4848532;29;20839;-58
2023/02/28 06:46:15;;;;;;;8.40;4.57;;;2.60;99.90;;;;;;4855347;29;20474;-58
2023/02/28 06:48:44;;;;;;;6.87;4.60;;;2.50;99.90;;;;;;4859653;29;20483;-58
2023/02/28 06:51:16;;;;;;;7.20;4.13;;;2.40;99.90;;;;;;4843120;29;20931;-58
2023/02/28 06:53:44;;;;;;;9.33;4.30;;;2.40;99.90;;;;;;4850308;29;20479;-58
2023/02/28 06:56:14;;;;;;;7.03;4.80;;;2.40;99.90;;;;;;4843224;29;20497;-59
2023/02/28 06:58:43;;;;;;;5.57;4.27;;;2.50;99.90;;;;;;4840873;29;20476;-58
2023/02/28 07:01:11;;;;;;;5.57;3.80;;;2.50;99.90;;;;;;4842206;29;20493;-58
2023/02/28 07:03:39;;;;;;;6.33;4.03;;;2.60;99.90;;;;;;4842908;29;21029;-58
2023/02/28 07:06:08;;;;;;;7.63;4.17;;;2.60;99.90;;;;;;4842987;29;20489;-58
2023/02/28 07:08:39;;;;;;;5.67;3.70;;;2.70;99.90;;;;;;4842514;29;21076;-58
2023/02/28 07:11:07;;;;;;;5.40;3.70;;;2.70;99.90;;;;;;4846461;29;20483;-58
2023/02/28 07:13:36;;;;;;;6.57;3.53;;;2.70;99.90;;;;;;4840666;29;20498;-58
2023/02/28 07:16:08;;;;;;;5.73;3.30;;;2.80;99.90;;;;;;4840756;29;20488;-58
2023/02/28 07:18:37;;;;;;;4.17;3.17;;;2.80;99.90;;;;;;4841578;29;20814;-58
2023/02/28 07:21:08;;;;;;;4.03;3.10;;;3.00;99.90;;;;;;4839314;29;20496;-59
2023/02/28 07:23:38;;;;;;;7.83;3.47;;;3.00;99.90;;;;;;4845754;29;20492;-58
2023/02/28 07:26:07;;;;;;;5.10;3.23;;;3.20;99.90;;;;;;4842279;29;20567;-59
2023/02/28 07:28:35;;;;;;;5.17;3.53;;;3.30;99.90;;;;;;4840950;29;20475;-59
2023/02/28 07:31:08;;;;;;;4.50;3.27;;;3.40;99.90;;;;;;4834626;29;20480;-59
2023/02/28 07:33:36;;;;;;;4.27;3.30;;;3.50;99.90;;;;;;4841804;29;20569;-58
2023/02/28 07:36:06;;;;;;;7.53;3.20;;;3.70;99.90;;;;;;4833636;29;20486;-59
2023/02/28 07:38:37;;;;;;;6.20;3.33;;;3.80;99.90;;;;;;4841601;29;20825;-59
2023/02/28 07:41:05;;;;;;;5.77;3.50;;;4.00;99.90;;;;;;4835073;29;20502;-59
2023/02/28 07:43:34;;;;;;;7.97;3.67;;;4.10;99.90;;;;;;4841210;29;20494;-58
2023/02/28 07:46:03;;;;;;;5.33;3.53;;;4.30;99.90;;;;;;4842179;29;20478;-59
2023/02/28 07:48:32;;;;;;;7.13;3.70;;;4.40;99.90;;;;;;4841414;29;20835;-59
2023/02/28 07:51:01;;;;;;;6.63;3.40;;;4.60;99.90;;;;;;4839503;29;20468;-59
2023/02/28 07:53:29;;;;;;;5.33;3.70;;;4.70;99.90;;;;;;4847963;29;20477;-59
2023/02/28 07:56:00;;;;;;;4.30;3.23;;;4.90;99.90;;;;;;4837889;29;20478;-59
2023/02/28 07:58:30;;;;;;;5.13;3.60;;;5.10;99.90;;;;;;4852579;29;20478;-58
2023/02/28 08:00:58;;;;;;;4.70;3.00;;;5.20;99.90;;;;;;4860119;29;20490;-59
2023/02/28 08:03:26;;;;;;;5.10;3.27;;;5.40;99.90;;;;;;4860157;29;20510;-59
2023/02/28 08:05:54;;;;;;;5.30;3.30;;;5.50;99.90;;;;;;4860778;29;20486;-59
2023/02/28 08:08:23;;;;;;;3.90;2.50;;;5.70;99.90;;;;;;4860678;29;20470;-59
2023/02/28 08:10:51;;;;;;;3.37;2.80;;;5.80;99.90;;;;;;4860624;29;20475;-59
2023/02/28 08:13:20;;;;;;;4.80;2.90;;;5.90;99.90;;;;;;4852629;29;20486;-59
2023/02/28 08:15:48;;;;;;;6.33;2.90;;;6.10;99.90;;;;;;4860256;29;20486;-58
2023/02/28 08:18:17;;;;;;;4.43;2.80;;;6.30;99.90;;;;;;4860484;29;20471;-58
2023/02/28 08:20:45;;;;;;;4.47;2.60;;;6.50;99.90;;;;;;4860385;29;20510;-59
2023/02/28 08:23:13;;;;;;;5.73;2.70;;;6.60;99.90;;;;;;4860165;29;20474;-59
2023/02/28 08:25:41;;;;;;;4.93;2.70;;;6.80;99.90;;;;;;4852654;29;20240;-59
2023/02/28 08:28:09;;;;;;;4.97;2.03;;;6.90;99.90;;;;;;4858759;29;20226;-59
2023/02/28 08:30:40;;;;;;;2.90;2.10;;;7.00;99.90;;;;;;4841310;29;20239;-59
2023/02/28 08:33:08;;;;;;;3.87;2.63;;;7.10;99.90;;;;;;4841117;29;20258;-59
2023/02/28 08:35:37;;;;;;;4.40;2.53;;;7.30;99.90;;;;;;4841737;29;20251;-59
2023/02/28 08:38:06;;;;;;;4.73;2.40;;;7.40;99.90;;;;;;4841994;29;20311;-59
2023/02/28 08:40:34;;;;;;;4.60;2.30;;;7.40;99.90;;;;;;4844197;29;20699;-59
2023/02/28 08:43:02;;;;;;;3.30;2.00;;;7.60;99.90;;;;;;4854993;29;20222;-59
2023/02/28 08:45:30;;;;;;;2.80;2.10;;;7.80;99.90;;;;;;4843780;29;20642;-59
2023/02/28 08:47:59;;;;;;;2.57;2.00;;;8.00;99.90;;;;;;4845133;29;20270;-58
2023/02/28 08:50:27;;;;;;;4.30;2.23;;;8.10;99.90;;;;;;4852742;29;20229;-58
2023/02/28 08:52:55;;;;;;;2.97;1.80;;;8.20;99.90;;;;;;4862508;29;20235;-59
2023/02/28 08:55:23;;;;;;;3.87;1.97;;;8.30;99.90;;;;;;4856021;29;20691;-59
2023/02/28 08:57:52;;;;;;;3.20;1.70;;;8.50;99.90;;;;;;4863575;29;20231;-59
2023/02/28 09:00:21;;;;;;;3.00;1.80;;;8.60;99.90;;;;;;4863005;29;20226;-59
2023/02/28 09:02:49;;;;;;;2.03;1.77;;;8.60;99.90;;;;;;4859115;29;20235;-59
2023/02/28 09:05:18;;;;;;;3.83;1.80;;;8.70;99.90;;;;;;4845107;29;20326;-59
2023/02/28 09:07:47;;;;;;;4.97;1.53;;;8.80;99.90;;;;;;4845172;29;20232;-59
2023/02/28 09:10:15;;;;;;;2.60;1.60;;;9.00;99.90;;;;;;4843982;29;20232;-59
2023/02/28 09:12:45;;;;;;;2.50;1.40;;;9.10;99.90;;;;;;4852893;29;20635;-59
2023/02/28 09:15:13;;;;;;;2.23;1.53;;;9.30;99.90;;;;;;4845015;29;20646;-59
2023/02/28 09:17:42;;;;;;;2.00;1.60;;;9.50;99.90;;;;;;4844994;29;20756;-58
2023/02/28 09:20:13;;;;;;;2.27;1.67;;;9.60;99.90;;;;;;4830144;29;20252;-59
2023/02/28 09:22:43;;;;;;;2.17;1.27;;;9.70;99.90;;;;;;4838050;29;20243;-58
2023/02/28 09:25:11;;;;;;;3.13;1.60;;;9.80;99.90;;;;;;4855343;29;20234;-59
2023/02/28 09:27:39;;;;;;;3.20;1.33;;;9.90;99.90;;;;;;4863116;29;20247;-58
2023/02/28 09:30:10;;;;;;;2.00;1.30;;;10.00;99.90;;;;;;4846307;29;20278;-59
2023/02/28 09:32:38;;;;;;;5.80;1.70;;;9.90;99.90;;;;;;4844271;29;20239;-59
2023/02/28 09:35:13;;;;;;;2.40;1.20;;;9.90;99.90;;;;;;4844568;29;20243;-58
2023/02/28 09:37:41;;;;;;;3.03;1.33;;;10.00;99.90;;;;;;4844663;29;20238;-59
2023/02/28 09:40:12;;;;;;;2.43;1.70;;;10.00;99.90;;;;;;4844776;29;20286;-59
2023/02/28 09:42:40;;;;;;;2.70;1.30;;;10.20;99.90;;;;;;4852835;29;20625;-59
2023/02/28 09:45:20;;;;;;;2.00;1.23;;;10.30;99.90;;;;;;4851874;29;20595;-59
2023/02/28 09:47:52;;;;;;;3.47;1.30;;;10.30;99.90;;;;;;4854907;29;20250;-59
2023/02/28 09:50:30;;;;;;;1.60;1.40;;;10.40;99.90;;;;;;4862612;29;20235;-59
2023/02/28 09:52:59;;;;;;;1.80;1.17;;;10.30;99.90;;;;;;4856251;29;20227;-59
2023/02/28 09:55:31;;;;;;;2.07;1.10;;;10.50;99.90;;;;;;4854546;29;20247;-59
2023/02/28 09:58:16;;;;;;;1.80;1.10;;;10.70;99.90;;;;;;4862703;29;20239;-59
2023/02/28 10:00:47;;;;;;;2.47;0.93;;;11.00;99.90;;;;;;4856996;29;20245;-59
2023/02/28 10:03:30;;;;;;;2.43;0.97;;;11.20;99.90;;;;;;4844090;29;20628;-59
2023/02/28 10:06:04;;;;;;;1.20;1.00;;;11.30;99.90;;;;;;4843953;29;20236;-59
2023/02/28 10:08:41;;;;;;;2.20;1.10;;;11.50;99.90;;;;;;4843962;29;20247;-59
2023/02/28 10:11:15;;;;;;;2.23;0.90;;;11.60;99.90;;;;;;4848735;29;20692;-59
2023/02/28 10:13:54;;;;;;;1.90;1.00;;;11.70;99.90;;;;;;4852999;29;20254;-59
2023/02/28 10:16:28;;;;;;;1.43;0.97;;;11.80;99.90;;;;;;4850071;29;20224;-59
2023/02/28 10:19:03;;;;;;;1.13;1.00;;;11.90;99.90;;;;;;4859239;29;20231;-59
2023/02/28 10:21:36;;;;;;;3.57;1.50;;;12.00;99.90;;;;;;4847122;29;20235;-59
2023/02/28 10:24:12;;;;;;;4.13;1.37;;;11.90;99.90;;;;;;4855890;29;20227;-59
2023/02/28 10:26:46;;;;;;;2.20;1.23;;;11.70;99.90;;;;;;4858792;29;20255;-59
2023/02/28 10:29:14;;;;;;;5.23;1.10;;;12.00;99.90;;;;;;4849726;29;20234;-59
2023/02/28 10:31:42;;;;;;;3.80;1.60;;;12.30;99.90;;;;;;4854105;29;20235;-59
2023/02/28 10:34:13;;;;;;;2.63;1.40;;;12.50;99.90;;;;;;4854078;29;20246;-59
2023/02/28 10:36:43;;;;;;;1.83;1.13;;;12.50;99.90;;;;;;4851704;29;20242;-59
2023/02/28 10:39:38;;;;;;;3.07;1.30;;;12.50;99.90;;;;;;4850845;29;20233;-59
2023/02/28 10:42:21;;;;;;;3.17;1.70;;;12.50;99.90;;;;;;4861147;29;20723;-59
2023/02/28 10:44:49;;;;;;;2.27;1.70;;;12.20;99.90;;;;;;4861229;29;20264;-59
2023/02/28 10:47:20;;;;;;;2.67;1.63;;;12.40;99.90;;;;;;4845224;29;20244;-59
2023/02/28 10:49:50;;;;;;;3.27;1.60;;;12.70;99.90;;;;;;4852711;29;20590;-59
2023/02/28 10:52:36;;;;;;;2.00;1.27;;;12.70;99.90;;;;;;4861567;29;20224;-59
2023/02/28 10:55:22;;;;;;;2.53;1.50;;;12.80;99.90;;;;;;4836628;29;20240;-59
2023/02/28 10:57:53;;;;;;;2.90;1.40;;;13.00;99.90;;;;;;4843402;29;20613;-59
2023/02/28 11:00:25;;;;;;;2.67;1.50;;;13.20;99.90;;;;;;4843797;29;20297;-60
2023/02/28 11:02:54;;;;;;;2.20;1.40;;;13.20;99.90;;;;;;4844106;29;20740;-59
2023/02/28 11:05:30;;;;;;;2.90;1.50;;;13.30;99.90;;;;;;4843751;29;20276;-59
2023/02/28 11:08:06;;;;;;;2.43;1.37;;;13.30;99.90;;;;;;4844126;29;20240;-59
2023/02/28 11:10:35;;;;;;;3.90;1.40;;;13.20;99.90;;;;;;4843827;29;20264;-59
2023/02/28 11:13:05;;;;;;;2.23;1.40;;;13.00;99.90;;;;;;4843932;29;20256;-59
2023/02/28 11:15:34;;;;;;;1.97;1.30;;;13.10;99.90;;;;;;4844006;29;20229;-59
2023/02/28 11:18:17;;;;;;;3.07;1.33;;;13.30;99.90;;;;;;4842469;29;20233;-59
2023/02/28 11:20:50;;;;;;;3.20;1.30;;;13.50;99.90;;;;;;4842460;29;20294;-60
2023/02/28 11:23:19;;;;;;;2.37;1.57;;;13.50;99.90;;;;;;4843025;29;20717;-59
2023/02/28 11:25:51;;;;;;;3.07;1.53;;;13.60;99.90;;;;;;4853560;29;20657;-59
2023/02/28 11:28:29;;;;;;;2.80;1.47;;;13.70;99.90;;;;;;4858533;29;20584;-60
2023/02/28 11:31:03;;;;;;;2.40;1.33;;;13.70;99.90;;;;;;4844662;29;20276;-59
2023/02/28 11:33:32;;;;;;;3.00;1.80;;;13.60;99.90;;;;;;4853391;29;20722;-59
2023/02/28 11:36:04;;;;;;;2.80;2.23;;;13.80;99.90;;;;;;4837370;29;20234;-59
2023/02/28 11:38:35;;;;;;;3.93;1.40;;;13.70;99.90;;;;;;4841853;29;20664;-58
2023/02/28 11:41:30;;;;;;;2.13;1.73;;;13.60;99.90;;;;;;4836613;29;20594;-59
2023/02/28 11:44:16;;;;;;;3.80;1.80;;;13.70;99.90;;;;;;4834216;29;20660;-58
2023/02/28 11:46:48;;;;;;;2.73;1.77;;;13.70;99.90;;;;;;4838749;29;20595;-58
2023/02/28 11:49:39;;;;;;;2.57;2.00;;;13.70;99.90;;;;;;4842336;29;20227;-59
2023/02/28 11:52:19;;;;;;;4.37;1.80;;;13.90;99.90;;;;;;4842237;29;20590;-59
2023/02/28 11:55:00;;;;;;;3.13;2.40;;;14.00;99.90;;;;;;4851724;29;20289;-58
2023/02/28 11:57:49;;;;;;;3.90;2.73;;;13.90;99.90;;;;;;4859932;29;20241;-59
2023/02/28 12:00:36;;;;;;;3.47;1.70;;;13.60;99.90;;;;;;4824012;29;20249;-58
2023/02/28 12:03:18;;;;;;;4.17;3.13;;;13.20;99.90;;;;;;4823935;29;20235;-59
2023/02/28 12:05:50;;;;;;;4.00;1.93;;;12.80;99.90;;;;;;4823872;29;20237;-59
2023/02/28 12:08:34;;;;;;;4.40;2.33;;;12.10;99.90;;;;;;4824010;29;20247;-59
2023/02/28 12:11:12;;;;;;;2.17;1.40;;;12.20;99.90;;;;;;4838523;29;20620;-59
2023/02/28 12:13:49;;;;;;;2.40;1.73;;;12.30;99.90;;;;;;4836128;29;20246;-59
2023/02/28 12:16:51;;;;;;;3.03;1.57;;;12.30;99.90;;;;;;4835301;29;20721;-59
2023/02/28 12:19:24;;;;;;;6.53;3.77;;;12.40;99.90;;;;;;4838441;29;20233;-58
2023/02/28 12:22:17;;;;;;;3.87;2.00;;;12.20;99.90;;;;;;4836789;29;20588;-58
2023/02/28 12:25:19;;;;;;;2.63;1.57;;;12.20;99.90;;;;;;4841020;29;20798;-59
2023/02/28 12:27:49;;;;;;;2.00;1.57;;;12.20;99.90;;;;;;4839425;29;20241;-58
2023/02/28 12:30:23;;;;;;;4.30;3.07;;;12.20;99.90;;;;;;4837952;29;20321;-58
2023/02/28 12:32:57;;;;;;;2.17;1.40;;;12.10;99.90;;;;;;4837619;29;20321;-58
2023/02/28 12:35:33;;;;;;;2.90;1.60;;;12.00;99.90;;;;;;4843008;29;20250;-58
2023/02/28 12:38:05;;;;;;;1.87;1.50;;;12.00;99.90;;;;;;4846026;29;20580;-58
2023/02/28 12:40:44;;;;;;;3.97;2.30;;;12.00;99.90;;;;;;4835599;29;20244;-58
2023/02/28 12:43:14;;;;;;;4.17;2.60;;;12.00;99.90;;;;;;4833307;29;20599;-59
2023/02/28 12:45:48;;;;;;;1.90;1.40;;;11.70;99.90;;;;;;4842499;29;20265;-58
2023/02/28 12:48:25;;;;;;;2.63;1.70;;;11.70;99.90;;;;;;4851327;29;20682;-58
2023/02/28 12:50:53;;;;;;;3.13;1.63;;;11.80;99.90;;;;;;4842687;29;20244;-58
2023/02/28 12:53:26;;;;;;;2.80;1.70;;;11.80;99.90;;;;;;4853534;29;20235;-58
2023/02/28 12:56:08;;;;;;;13.70;10.30;;;11.80;99.90;;;;;;4847453;29;20294;-58
2023/02/28 12:58:41;;;;;;;5.70;2.53;;;12.20;99.90;;;;;;4844934;29;20597;-58
2023/02/28 13:01:43;;;;;;;5.50;2.13;;;12.40;99.90;;;;;;4838390;29;20248;-58
2023/02/28 13:04:41;;;;;;;3.50;1.83;;;11.70;99.90;;;;;;4831689;29;20270;-59
2023/02/28 13:07:42;;;;;;;2.07;1.70;;;11.50;99.90;;;;;;4829048;29;20245;-58
2023/02/28 13:10:10;;;;;;;2.40;1.80;;;11.20;99.90;;;;;;4843539;29;20211;-58
2023/02/28 13:12:49;;;;;;;2.93;1.50;;;11.20;99.90;;;;;;4856474;29;20246;-58
2023/02/28 13:15:23;;;;;;;1.90;1.60;;;11.40;99.90;;;;;;4845661;29;20206;-58
2023/02/28 13:17:54;;;;;;;4.73;3.47;;;11.30;99.90;;;;;;4840634;29;20227;-58
2023/02/28 13:20:26;;;;;;;2.50;1.60;;;11.40;99.90;;;;;;4845505;29;20237;-59